sensor_id;sensor_type;location;lat;lon;timestamp;P1;durP1;ratioP1;P2;durP2;ratioP2
36195;SDS011;22237;51.974;4.616;2023-08-08T13:35:11;0.82;;;0.60;;
36195;SDS011;22237;51.974;4.616;2023-08-08T13:37:36;3.20;;;0.70;;
36195;SDS011;22237;51.974;4.616;2023-08-08T13:40:02;0.93;;;0.60;;
36195;SDS011;22237;51.974;4.616;2023-08-08T13:42:27;0.63;;;0.60;;
36195;SDS011;22237;51.974;4.616;2023-08-08T13:44:54;1.88;;;0.63;;
36195;SDS011;22237;51.974;4.616;2023-08-08T13:47:19;1.05;;;0.60;;
36195;SDS011;22237;51.974;4.616;2023-08-08T13:49:45;3.50;;;0.93;;
36195;SDS011;22237;51.974;4.616;2023-08-08T13:52:10;2.88;;;1.83;;
36195;SDS011;22237;51.974;4.616;2023-08-08T13:54:36;0.65;;;0.50;;
36195;SDS011;22237;51.974;4.616;2023-08-08T13:57:01;1.65;;;0.93;;
36195;SDS011;22237;51.974;4.616;2023-08-08T13:59:26;2.55;;;0.88;;
36195;SDS011;22237;51.974;4.616;2023-08-08T14:01:52;1.27;;;0.65;;
36195;SDS011;22237;51.974;4.616;2023-08-08T14:04:17;0.70;;;0.65;;
36195;SDS011;22237;51.974;4.616;2023-08-08T14:06:43;2.67;;;0.60;;
36195;SDS011;22237;51.974;4.616;2023-08-08T14:09:09;2.38;;;0.98;;
36195;SDS011;22237;51.974;4.616;2023-08-08T14:11:34;2.13;;;0.90;;
36195;SDS011;22237;51.974;4.616;2023-08-08T14:14:00;0.55;;;0.55;;
36195;SDS011;22237;51.974;4.616;2023-08-08T14:16:25;1.15;;;0.82;;
36195;SDS011;22237;51.974;4.616;2023-08-08T14:18:50;4.28;;;0.75;;
36195;SDS011;22237;51.974;4.616;2023-08-08T14:21:16;2.95;;;0.63;;
36195;SDS011;22237;51.974;4.616;2023-08-08T14:23:41;5.25;;;1.02;;
36195;SDS011;22237;51.974;4.616;2023-08-08T14:26:06;2.60;;;0.82;;
36195;SDS011;22237;51.974;4.616;2023-08-08T14:28:32;1.00;;;0.90;;
36195;SDS011;22237;51.974;4.616;2023-08-08T14:30:57;3.60;;;0.80;;
36195;SDS011;22237;51.974;4.616;2023-08-08T14:33:26;2.95;;;0.80;;
36195;SDS011;22237;51.974;4.616;2023-08-08T14:35:51;1.88;;;0.65;;
36195;SDS011;22237;51.974;4.616;2023-08-08T14:38:17;7.68;;;1.00;;
36195;SDS011;22237;51.974;4.616;2023-08-08T14:40:42;3.38;;;1.00;;
36195;SDS011;22237;51.974;4.616;2023-08-08T14:43:08;0.75;;;0.40;;
36195;SDS011;22237;51.974;4.616;2023-08-08T14:45:36;2.15;;;0.77;;
36195;SDS011;22237;51.974;4.616;2023-08-08T14:48:03;0.80;;;0.73;;
36195;SDS011;22237;51.974;4.616;2023-08-08T14:50:29;4.80;;;0.90;;
36195;SDS011;22237;51.974;4.616;2023-08-08T14:52:55;1.85;;;0.95;;
36195;SDS011;22237;51.974;4.616;2023-08-08T14:55:21;3.28;;;0.90;;
36195;SDS011;22237;51.974;4.616;2023-08-08T14:57:46;1.48;;;0.80;;
36195;SDS011;22237;51.974;4.616;2023-08-08T15:00:11;1.85;;;0.90;;
36195;SDS011;22237;51.974;4.616;2023-08-08T15:02:38;1.73;;;0.70;;
36195;SDS011;22237;51.974;4.616;2023-08-08T15:05:03;3.58;;;1.55;;
36195;SDS011;22237;51.974;4.616;2023-08-08T15:07:29;2.78;;;0.75;;
36195;SDS011;22237;51.974;4.616;2023-08-08T15:09:54;2.78;;;1.60;;
36195;SDS011;22237;51.974;4.616;2023-08-08T15:12:20;0.88;;;0.82;;
36195;SDS011;22237;51.974;4.616;2023-08-08T15:14:45;2.15;;;0.73;;
36195;SDS011;22237;51.974;4.616;2023-08-08T15:17:11;2.40;;;0.70;;
36195;SDS011;22237;51.974;4.616;2023-08-08T15:19:36;1.00;;;0.90;;
36195;SDS011;22237;51.974;4.616;2023-08-08T15:22:03;2.00;;;0.70;;
36195;SDS011;22237;51.974;4.616;2023-08-08T15:24:29;5.35;;;0.80;;
36195;SDS011;22237;51.974;4.616;2023-08-08T15:26:54;2.45;;;0.90;;
36195;SDS011;22237;51.974;4.616;2023-08-08T15:29:19;3.92;;;0.93;;
36195;SDS011;22237;51.974;4.616;2023-08-08T15:31:45;2.65;;;1.20;;
36195;SDS011;22237;51.974;4.616;2023-08-08T15:34:10;1.98;;;1.13;;
36195;SDS011;22237;51.974;4.616;2023-08-08T15:36:36;4.47;;;1.08;;
36195;SDS011;22237;51.974;4.616;2023-08-08T15:39:01;2.83;;;0.90;;
36195;SDS011;22237;51.974;4.616;2023-08-08T15:41:26;1.10;;;0.80;;
36195;SDS011;22237;51.974;4.616;2023-08-08T15:43:52;1.88;;;0.82;;
36195;SDS011;22237;51.974;4.616;2023-08-08T15:46:17;3.65;;;1.23;;
36195;SDS011;22237;51.974;4.616;2023-08-08T15:48:42;1.20;;;0.88;;
36195;SDS011;22237;51.974;4.616;2023-08-08T15:51:08;3.20;;;1.83;;
36195;SDS011;22237;51.974;4.616;2023-08-08T15:53:33;2.38;;;1.08;;
36195;SDS011;22237;51.974;4.616;2023-08-08T15:55:59;4.90;;;1.10;;
36195;SDS011;22237;51.974;4.616;2023-08-08T15:58:24;3.00;;;1.08;;
36195;SDS011;22237;51.974;4.616;2023-08-08T16:00:50;0.95;;;0.73;;
36195;SDS011;22237;51.974;4.616;2023-08-08T16:03:15;3.08;;;1.30;;
36195;SDS011;22237;51.974;4.616;2023-08-08T16:05:41;1.52;;;1.05;;
36195;SDS011;22237;51.974;4.616;2023-08-08T16:08:06;1.80;;;1.05;;
36195;SDS011;22237;51.974;4.616;2023-08-08T16:10:34;2.38;;;1.10;;
36195;SDS011;22237;51.974;4.616;2023-08-08T16:13:00;3.17;;;1.20;;
36195;SDS011;22237;51.974;4.616;2023-08-08T16:15:25;5.70;;;2.05;;
36195;SDS011;22237;51.974;4.616;2023-08-08T16:17:51;2.17;;;1.17;;
36195;SDS011;22237;51.974;4.616;2023-08-08T16:20:16;7.20;;;1.10;;
36195;SDS011;22237;51.974;4.616;2023-08-08T16:22:42;2.60;;;0.77;;
36195;SDS011;22237;51.974;4.616;2023-08-08T16:25:07;4.18;;;1.10;;
36195;SDS011;22237;51.974;4.616;2023-08-08T16:27:33;5.90;;;1.20;;
36195;SDS011;22237;51.974;4.616;2023-08-08T16:29:59;3.88;;;1.40;;
36195;SDS011;22237;51.974;4.616;2023-08-08T16:32:24;1.50;;;1.10;;
36195;SDS011;22237;51.974;4.616;2023-08-08T16:34:50;4.57;;;1.27;;
36195;SDS011;22237;51.974;4.616;2023-08-08T16:37:15;2.80;;;1.50;;
36195;SDS011;22237;51.974;4.616;2023-08-08T16:39:40;6.30;;;1.75;;
36195;SDS011;22237;51.974;4.616;2023-08-08T16:42:06;3.25;;;1.13;;
36195;SDS011;22237;51.974;4.616;2023-08-08T16:44:32;2.45;;;1.52;;
36195;SDS011;22237;51.974;4.616;2023-08-08T16:46:57;3.40;;;1.45;;
36195;SDS011;22237;51.974;4.616;2023-08-08T16:49:22;3.83;;;1.30;;
36195;SDS011;22237;51.974;4.616;2023-08-08T16:51:48;3.70;;;1.10;;
36195;SDS011;22237;51.974;4.616;2023-08-08T16:54:13;6.85;;;1.38;;
36195;SDS011;22237;51.974;4.616;2023-08-08T16:56:39;2.13;;;1.45;;
36195;SDS011;22237;51.974;4.616;2023-08-08T16:59:04;3.83;;;1.63;;
36195;SDS011;22237;51.974;4.616;2023-08-08T17:01:30;4.53;;;2.33;;
36195;SDS011;22237;51.974;4.616;2023-08-08T17:03:56;5.93;;;1.85;;
36195;SDS011;22237;51.974;4.616;2023-08-08T17:06:21;5.03;;;1.55;;
36195;SDS011;22237;51.974;4.616;2023-08-08T17:08:47;2.38;;;1.08;;
36195;SDS011;22237;51.974;4.616;2023-08-08T17:11:12;3.53;;;1.10;;
36195;SDS011;22237;51.974;4.616;2023-08-08T17:13:38;3.25;;;1.02;;
36195;SDS011;22237;51.974;4.616;2023-08-08T17:16:04;3.35;;;1.35;;
36195;SDS011;22237;51.974;4.616;2023-08-08T17:18:29;1.35;;;0.82;;
36195;SDS011;22237;51.974;4.616;2023-08-08T17:20:55;0.90;;;0.90;;
36195;SDS011;22237;51.974;4.616;2023-08-08T17:23:20;2.60;;;1.10;;
36195;SDS011;22237;51.974;4.616;2023-08-08T17:25:46;1.67;;;1.10;;
36195;SDS011;22237;51.974;4.616;2023-08-08T17:28:11;3.13;;;1.30;;
36195;SDS011;22237;51.974;4.616;2023-08-08T17:30:36;0.90;;;0.90;;
36195;SDS011;22237;51.974;4.616;2023-08-08T17:33:02;2.58;;;0.98;;
36195;SDS011;22237;51.974;4.616;2023-08-08T17:35:28;1.20;;;0.90;;
36195;SDS011;22237;51.974;4.616;2023-08-08T17:37:53;1.67;;;1.20;;
36195;SDS011;22237;51.974;4.616;2023-08-08T17:40:19;2.10;;;1.13;;
36195;SDS011;22237;51.974;4.616;2023-08-08T17:42:44;2.53;;;0.90;;
36195;SDS011;22237;51.974;4.616;2023-08-08T17:45:10;1.15;;;1.02;;
36195;SDS011;22237;51.974;4.616;2023-08-08T17:47:35;2.42;;;1.00;;
36195;SDS011;22237;51.974;4.616;2023-08-08T17:50:01;1.85;;;0.80;;
36195;SDS011;22237;51.974;4.616;2023-08-08T17:52:27;3.33;;;1.05;;
36195;SDS011;22237;51.974;4.616;2023-08-08T17:54:53;3.10;;;1.15;;
36195;SDS011;22237;51.974;4.616;2023-08-08T17:57:18;1.02;;;0.90;;
36195;SDS011;22237;51.974;4.616;2023-08-08T17:59:43;5.63;;;1.20;;
36195;SDS011;22237;51.974;4.616;2023-08-08T18:02:09;3.15;;;1.17;;
36195;SDS011;22237;51.974;4.616;2023-08-08T18:04:35;1.58;;;0.93;;
36195;SDS011;22237;51.974;4.616;2023-08-08T18:07:01;2.80;;;0.90;;
36195;SDS011;22237;51.974;4.616;2023-08-08T18:09:26;4.40;;;1.30;;
36195;SDS011;22237;51.974;4.616;2023-08-08T18:11:55;1.55;;;1.02;;
36195;SDS011;22237;51.974;4.616;2023-08-08T18:14:21;1.10;;;0.90;;
36195;SDS011;22237;51.974;4.616;2023-08-08T18:16:46;3.33;;;1.05;;
36195;SDS011;22237;51.974;4.616;2023-08-08T18:19:12;3.70;;;0.82;;
36195;SDS011;22237;51.974;4.616;2023-08-08T18:21:38;2.63;;;1.00;;
36195;SDS011;22237;51.974;4.616;2023-08-08T18:24:03;2.78;;;0.88;;
36195;SDS011;22237;51.974;4.616;2023-08-08T18:26:29;3.97;;;1.38;;
36195;SDS011;22237;51.974;4.616;2023-08-08T18:28:54;2.45;;;1.15;;
36195;SDS011;22237;51.974;4.616;2023-08-08T18:31:20;4.13;;;0.85;;
36195;SDS011;22237;51.974;4.616;2023-08-08T18:33:46;1.23;;;1.13;;
36195;SDS011;22237;51.974;4.616;2023-08-08T18:36:12;2.67;;;0.80;;
36195;SDS011;22237;51.974;4.616;2023-08-08T18:38:37;1.40;;;1.02;;
36195;SDS011;22237;51.974;4.616;2023-08-08T18:41:03;4.75;;;1.80;;
36195;SDS011;22237;51.974;4.616;2023-08-08T18:43:28;1.83;;;0.98;;
36195;SDS011;22237;51.974;4.616;2023-08-08T18:45:56;3.67;;;1.83;;
36195;SDS011;22237;51.974;4.616;2023-08-08T18:48:24;3.33;;;1.00;;
36195;SDS011;22237;51.974;4.616;2023-08-08T18:50:50;3.42;;;1.80;;
36195;SDS011;22237;51.974;4.616;2023-08-08T18:53:15;9.23;;;1.10;;
36195;SDS011;22237;51.974;4.616;2023-08-08T18:55:41;2.75;;;1.23;;
36195;SDS011;22237;51.974;4.616;2023-08-08T18:58:12;1.10;;;0.90;;
36195;SDS011;22237;51.974;4.616;2023-08-08T19:00:38;1.00;;;0.90;;
36195;SDS011;22237;51.974;4.616;2023-08-08T19:03:03;2.90;;;1.02;;
36195;SDS011;22237;51.974;4.616;2023-08-08T19:05:32;3.30;;;1.20;;
36195;SDS011;22237;51.974;4.616;2023-08-08T19:07:57;1.00;;;0.90;;
36195;SDS011;22237;51.974;4.616;2023-08-08T19:10:24;1.83;;;0.98;;
36195;SDS011;22237;51.974;4.616;2023-08-08T19:12:50;4.57;;;1.45;;
36195;SDS011;22237;51.974;4.616;2023-08-08T19:15:15;5.25;;;1.15;;
36195;SDS011;22237;51.974;4.616;2023-08-08T19:17:40;7.63;;;1.20;;
36195;SDS011;22237;51.974;4.616;2023-08-08T19:20:06;1.80;;;1.17;;
36195;SDS011;22237;51.974;4.616;2023-08-08T19:22:34;1.33;;;1.05;;
36195;SDS011;22237;51.974;4.616;2023-08-08T19:24:59;3.78;;;1.00;;
36195;SDS011;22237;51.974;4.616;2023-08-08T19:27:25;3.05;;;1.27;;
36195;SDS011;22237;51.974;4.616;2023-08-08T19:29:50;1.85;;;1.10;;
36195;SDS011;22237;51.974;4.616;2023-08-08T19:32:16;6.15;;;1.25;;
36195;SDS011;22237;51.974;4.616;2023-08-08T19:34:41;1.63;;;1.17;;
36195;SDS011;22237;51.974;4.616;2023-08-08T19:37:06;2.67;;;1.15;;
36195;SDS011;22237;51.974;4.616;2023-08-08T19:39:32;1.85;;;1.30;;
36195;SDS011;22237;51.974;4.616;2023-08-08T19:41:58;6.95;;;1.50;;
36195;SDS011;22237;51.974;4.616;2023-08-08T19:44:23;1.45;;;1.35;;
36195;SDS011;22237;51.974;4.616;2023-08-08T19:46:49;3.60;;;1.20;;
36195;SDS011;22237;51.974;4.616;2023-08-08T19:49:14;5.00;;;1.40;;
36195;SDS011;22237;51.974;4.616;2023-08-08T19:51:40;1.30;;;1.20;;
36195;SDS011;22237;51.974;4.616;2023-08-08T19:54:05;2.55;;;1.20;;
36195;SDS011;22237;51.974;4.616;2023-08-08T19:56:31;3.47;;;1.30;;
36195;SDS011;22237;51.974;4.616;2023-08-08T19:58:57;3.65;;;1.27;;
36195;SDS011;22237;51.974;4.616;2023-08-08T20:01:23;2.33;;;1.60;;
36195;SDS011;22237;51.974;4.616;2023-08-08T20:03:50;6.97;;;1.85;;
36195;SDS011;22237;51.974;4.616;2023-08-08T20:06:15;2.63;;;1.80;;
36195;SDS011;22237;51.974;4.616;2023-08-08T20:08:50;5.47;;;1.98;;
36195;SDS011;22237;51.974;4.616;2023-08-08T20:11:15;1.35;;;1.20;;
36195;SDS011;22237;51.974;4.616;2023-08-08T20:13:40;3.45;;;2.08;;
36195;SDS011;22237;51.974;4.616;2023-08-08T20:16:06;2.35;;;1.80;;
36195;SDS011;22237;51.974;4.616;2023-08-08T20:18:31;2.20;;;1.52;;
36195;SDS011;22237;51.974;4.616;2023-08-08T20:20:57;4.78;;;1.42;;
36195;SDS011;22237;51.974;4.616;2023-08-08T20:23:22;1.65;;;1.20;;
36195;SDS011;22237;51.974;4.616;2023-08-08T20:25:48;3.20;;;1.70;;
36195;SDS011;22237;51.974;4.616;2023-08-08T20:28:14;2.35;;;1.40;;
36195;SDS011;22237;51.974;4.616;2023-08-08T20:30:41;1.48;;;1.38;;
36195;SDS011;22237;51.974;4.616;2023-08-08T20:33:06;3.10;;;1.58;;
36195;SDS011;22237;51.974;4.616;2023-08-08T20:35:31;1.90;;;1.50;;
36195;SDS011;22237;51.974;4.616;2023-08-08T20:37:57;4.15;;;2.17;;
36195;SDS011;22237;51.974;4.616;2023-08-08T20:40:23;3.15;;;1.63;;
36195;SDS011;22237;51.974;4.616;2023-08-08T20:42:49;1.73;;;1.55;;
36195;SDS011;22237;51.974;4.616;2023-08-08T20:45:14;2.20;;;1.80;;
36195;SDS011;22237;51.974;4.616;2023-08-08T20:47:39;3.80;;;1.85;;
36195;SDS011;22237;51.974;4.616;2023-08-08T20:50:05;1.80;;;1.55;;
36195;SDS011;22237;51.974;4.616;2023-08-08T20:52:31;3.17;;;2.38;;
36195;SDS011;22237;51.974;4.616;2023-08-08T20:54:59;2.60;;;1.90;;
36195;SDS011;22237;51.974;4.616;2023-08-08T20:57:25;5.32;;;1.90;;
36195;SDS011;22237;51.974;4.616;2023-08-08T20:59:50;3.05;;;1.77;;
36195;SDS011;22237;51.974;4.616;2023-08-08T21:02:16;3.05;;;2.15;;
36195;SDS011;22237;51.974;4.616;2023-08-08T21:04:41;4.65;;;1.90;;
36195;SDS011;22237;51.974;4.616;2023-08-08T21:07:06;5.07;;;2.53;;
36195;SDS011;22237;51.974;4.616;2023-08-08T21:09:37;2.15;;;1.58;;
36195;SDS011;22237;51.974;4.616;2023-08-08T21:12:03;2.85;;;1.52;;
36195;SDS011;22237;51.974;4.616;2023-08-08T21:14:28;1.98;;;1.33;;
36195;SDS011;22237;51.974;4.616;2023-08-08T21:16:54;3.13;;;1.77;;
36195;SDS011;22237;51.974;4.616;2023-08-08T21:19:19;2.03;;;1.45;;
36195;SDS011;22237;51.974;4.616;2023-08-08T21:21:44;1.48;;;1.38;;
36195;SDS011;22237;51.974;4.616;2023-08-08T21:24:10;1.42;;;1.33;;
36195;SDS011;22237;51.974;4.616;2023-08-08T21:26:35;3.40;;;1.98;;
36195;SDS011;22237;51.974;4.616;2023-08-08T21:29:00;2.05;;;1.73;;
36195;SDS011;22237;51.974;4.616;2023-08-08T21:31:26;1.83;;;1.60;;
36195;SDS011;22237;51.974;4.616;2023-08-08T21:33:51;3.63;;;2.30;;
36195;SDS011;22237;51.974;4.616;2023-08-08T21:36:17;3.72;;;1.60;;
36195;SDS011;22237;51.974;4.616;2023-08-08T21:38:42;3.80;;;1.20;;
36195;SDS011;22237;51.974;4.616;2023-08-08T21:41:07;2.50;;;1.75;;
36195;SDS011;22237;51.974;4.616;2023-08-08T21:43:33;2.80;;;1.58;;
36195;SDS011;22237;51.974;4.616;2023-08-08T21:45:58;2.70;;;1.48;;
36195;SDS011;22237;51.974;4.616;2023-08-08T21:48:23;1.50;;;1.15;;
36195;SDS011;22237;51.974;4.616;2023-08-08T21:50:49;3.97;;;1.67;;
36195;SDS011;22237;51.974;4.616;2023-08-08T21:53:14;1.15;;;1.05;;
36195;SDS011;22237;51.974;4.616;2023-08-08T21:55:40;1.73;;;1.30;;
36195;SDS011;22237;51.974;4.616;2023-08-08T21:58:05;1.50;;;1.10;;
36195;SDS011;22237;51.974;4.616;2023-08-08T22:00:31;3.03;;;1.20;;
36195;SDS011;22237;51.974;4.616;2023-08-08T22:02:56;1.75;;;1.38;;
36195;SDS011;22237;51.974;4.616;2023-08-08T22:05:21;3.70;;;1.55;;
36195;SDS011;22237;51.974;4.616;2023-08-08T22:07:47;2.15;;;1.70;;
36195;SDS011;22237;51.974;4.616;2023-08-08T22:10:12;1.60;;;1.50;;
36195;SDS011;22237;51.974;4.616;2023-08-08T22:12:37;2.65;;;1.67;;
36195;SDS011;22237;51.974;4.616;2023-08-08T22:15:03;2.83;;;1.38;;
36195;SDS011;22237;51.974;4.616;2023-08-08T22:17:29;2.13;;;1.67;;
36195;SDS011;22237;51.974;4.616;2023-08-08T22:19:54;1.80;;;1.38;;
36195;SDS011;22237;51.974;4.616;2023-08-08T22:22:19;2.33;;;1.23;;
36195;SDS011;22237;51.974;4.616;2023-08-08T22:24:45;2.25;;;1.38;;
36195;SDS011;22237;51.974;4.616;2023-08-08T22:27:10;3.00;;;1.50;;
36195;SDS011;22237;51.974;4.616;2023-08-08T22:29:36;1.73;;;1.33;;
36195;SDS011;22237;51.974;4.616;2023-08-08T22:32:02;2.30;;;1.58;;
36195;SDS011;22237;51.974;4.616;2023-08-08T22:34:28;8.48;;;1.80;;
36195;SDS011;22237;51.974;4.616;2023-08-08T22:36:53;3.72;;;1.95;;
36195;SDS011;22237;51.974;4.616;2023-08-08T22:39:18;3.63;;;2.05;;
36195;SDS011;22237;51.974;4.616;2023-08-08T22:41:44;3.97;;;2.10;;
36195;SDS011;22237;51.974;4.616;2023-08-08T22:44:09;2.50;;;1.98;;
36195;SDS011;22237;51.974;4.616;2023-08-08T22:46:34;2.90;;;1.83;;
36195;SDS011;22237;51.974;4.616;2023-08-08T22:49:00;4.93;;;2.03;;
36195;SDS011;22237;51.974;4.616;2023-08-08T22:51:25;3.92;;;2.38;;
36195;SDS011;22237;51.974;4.616;2023-08-08T22:53:51;3.63;;;2.50;;
36195;SDS011;22237;51.974;4.616;2023-08-08T22:56:16;3.80;;;2.13;;
36195;SDS011;22237;51.974;4.616;2023-08-08T22:58:42;2.97;;;2.28;;
36195;SDS011;22237;51.974;4.616;2023-08-08T23:01:08;4.00;;;2.58;;
36195;SDS011;22237;51.974;4.616;2023-08-08T23:03:33;3.42;;;2.40;;
36195;SDS011;22237;51.974;4.616;2023-08-08T23:06:01;4.32;;;2.60;;
36195;SDS011;22237;51.974;4.616;2023-08-08T23:08:27;3.45;;;2.28;;
36195;SDS011;22237;51.974;4.616;2023-08-08T23:10:54;4.63;;;2.33;;
36195;SDS011;22237;51.974;4.616;2023-08-08T23:13:21;2.75;;;1.88;;
36195;SDS011;22237;51.974;4.616;2023-08-08T23:15:46;3.88;;;2.45;;
36195;SDS011;22237;51.974;4.616;2023-08-08T23:18:12;3.53;;;2.50;;
36195;SDS011;22237;51.974;4.616;2023-08-08T23:20:37;4.53;;;2.97;;
36195;SDS011;22237;51.974;4.616;2023-08-08T23:23:03;4.00;;;2.95;;
36195;SDS011;22237;51.974;4.616;2023-08-08T23:25:30;4.50;;;2.70;;
36195;SDS011;22237;51.974;4.616;2023-08-08T23:27:56;3.75;;;3.05;;
36195;SDS011;22237;51.974;4.616;2023-08-08T23:30:21;5.30;;;3.30;;
36195;SDS011;22237;51.974;4.616;2023-08-08T23:32:47;5.10;;;3.10;;
36195;SDS011;22237;51.974;4.616;2023-08-08T23:35:12;3.60;;;2.53;;
36195;SDS011;22237;51.974;4.616;2023-08-08T23:37:37;5.15;;;2.97;;
36195;SDS011;22237;51.974;4.616;2023-08-08T23:40:03;5.80;;;2.95;;
36195;SDS011;22237;51.974;4.616;2023-08-08T23:42:29;5.47;;;3.00;;
36195;SDS011;22237;51.974;4.616;2023-08-08T23:44:54;5.00;;;2.85;;
36195;SDS011;22237;51.974;4.616;2023-08-08T23:47:19;5.15;;;2.97;;
36195;SDS011;22237;51.974;4.616;2023-08-08T23:49:45;5.70;;;2.80;;
36195;SDS011;22237;51.974;4.616;2023-08-08T23:52:10;4.88;;;3.00;;
36195;SDS011;22237;51.974;4.616;2023-08-08T23:54:36;8.07;;;3.13;;
36195;SDS011;22237;51.974;4.616;2023-08-08T23:57:01;6.50;;;3.10;;
36195;SDS011;22237;51.974;4.616;2023-08-08T23:59:26;4.82;;;2.83;;
